sensor_id;sensor_type;location;lat;lon;timestamp;P1;durP1;ratioP1;P2;durP2;ratioP2
10191;SDS011;17580;50.850;4.504;2024-02-16T00:00:07;4.83;;;2.13;;
10191;SDS011;17580;50.850;4.504;2024-02-16T00:02:36;4.70;;;2.47;;
10191;SDS011;17580;50.850;4.504;2024-02-16T00:05:03;2.77;;;2.57;;
10191;SDS011;17580;50.850;4.504;2024-02-16T00:07:32;2.63;;;2.30;;
10191;SDS011;17580;50.850;4.504;2024-02-16T00:09:59;2.77;;;2.57;;
10191;SDS011;17580;50.850;4.504;2024-02-16T00:12:27;3.13;;;2.30;;
10191;SDS011;17580;50.850;4.504;2024-02-16T00:14:55;10.43;;;2.90;;
10191;SDS011;17580;50.850;4.504;2024-02-16T00:17:23;3.17;;;2.87;;
10191;SDS011;17580;50.850;4.504;2024-02-16T00:19:51;2.03;;;1.87;;
10191;SDS011;17580;50.850;4.504;2024-02-16T00:22:19;4.33;;;2.60;;
10191;SDS011;17580;50.850;4.504;2024-02-16T00:24:46;3.73;;;2.30;;
10191;SDS011;17580;50.850;4.504;2024-02-16T00:27:14;2.27;;;2.07;;
10191;SDS011;17580;50.850;4.504;2024-02-16T00:29:41;2.57;;;2.37;;
10191;SDS011;17580;50.850;4.504;2024-02-16T00:32:10;2.57;;;2.40;;
10191;SDS011;17580;50.850;4.504;2024-02-16T00:34:38;2.37;;;2.03;;
10191;SDS011;17580;50.850;4.504;2024-02-16T00:37:06;4.30;;;2.73;;
10191;SDS011;17580;50.850;4.504;2024-02-16T00:39:36;2.43;;;2.20;;
10191;SDS011;17580;50.850;4.504;2024-02-16T00:42:05;2.20;;;2.10;;
10191;SDS011;17580;50.850;4.504;2024-02-16T00:44:32;3.27;;;2.97;;
10191;SDS011;17580;50.850;4.504;2024-02-16T00:47:00;3.50;;;2.70;;
10191;SDS011;17580;50.850;4.504;2024-02-16T00:49:28;2.40;;;2.20;;
10191;SDS011;17580;50.850;4.504;2024-02-16T00:51:56;4.17;;;2.47;;
10191;SDS011;17580;50.850;4.504;2024-02-16T00:54:23;2.40;;;2.20;;
10191;SDS011;17580;50.850;4.504;2024-02-16T00:56:51;2.50;;;2.30;;
10191;SDS011;17580;50.850;4.504;2024-02-16T00:59:19;2.27;;;2.00;;
10191;SDS011;17580;50.850;4.504;2024-02-16T01:01:47;2.07;;;1.97;;
10191;SDS011;17580;50.850;4.504;2024-02-16T01:04:14;3.30;;;2.40;;
10191;SDS011;17580;50.850;4.504;2024-02-16T01:06:43;2.60;;;2.40;;
10191;SDS011;17580;50.850;4.504;2024-02-16T01:09:11;2.83;;;2.47;;
10191;SDS011;17580;50.850;4.504;2024-02-16T01:11:40;2.37;;;2.20;;
10191;SDS011;17580;50.850;4.504;2024-02-16T01:14:07;2.60;;;2.40;;
10191;SDS011;17580;50.850;4.504;2024-02-16T01:16:34;2.83;;;2.57;;
10191;SDS011;17580;50.850;4.504;2024-02-16T01:19:01;2.63;;;2.43;;
10191;SDS011;17580;50.850;4.504;2024-02-16T01:21:31;2.50;;;2.10;;
10191;SDS011;17580;50.850;4.504;2024-02-16T01:24:00;2.97;;;2.73;;
10191;SDS011;17580;50.850;4.504;2024-02-16T01:26:27;2.50;;;2.30;;
10191;SDS011;17580;50.850;4.504;2024-02-16T01:28:54;2.60;;;2.40;;
10191;SDS011;17580;50.850;4.504;2024-02-16T01:31:23;5.13;;;2.97;;
10191;SDS011;17580;50.850;4.504;2024-02-16T01:33:50;2.57;;;2.37;;
10191;SDS011;17580;50.850;4.504;2024-02-16T01:36:18;4.10;;;2.67;;
10191;SDS011;17580;50.850;4.504;2024-02-16T01:38:45;3.10;;;2.70;;
10191;SDS011;17580;50.850;4.504;2024-02-16T01:41:13;2.37;;;2.07;;
10191;SDS011;17580;50.850;4.504;2024-02-16T01:43:41;2.80;;;2.57;;
10191;SDS011;17580;50.850;4.504;2024-02-16T01:46:08;3.10;;;2.53;;
10191;SDS011;17580;50.850;4.504;2024-02-16T01:48:35;3.17;;;2.87;;
10191;SDS011;17580;50.850;4.504;2024-02-16T01:51:04;2.60;;;2.40;;
10191;SDS011;17580;50.850;4.504;2024-02-16T01:53:32;2.30;;;2.20;;
10191;SDS011;17580;50.850;4.504;2024-02-16T01:55:59;5.43;;;2.70;;
10191;SDS011;17580;50.850;4.504;2024-02-16T01:58:28;2.93;;;2.50;;
10191;SDS011;17580;50.850;4.504;2024-02-16T02:00:55;3.13;;;2.83;;
10191;SDS011;17580;50.850;4.504;2024-02-16T02:03:22;3.13;;;2.83;;
10191;SDS011;17580;50.850;4.504;2024-02-16T02:05:49;3.90;;;2.53;;
10191;SDS011;17580;50.850;4.504;2024-02-16T02:08:19;2.57;;;2.37;;
10191;SDS011;17580;50.850;4.504;2024-02-16T02:10:46;2.83;;;2.50;;
10191;SDS011;17580;50.850;4.504;2024-02-16T02:13:14;4.00;;;2.60;;
10191;SDS011;17580;50.850;4.504;2024-02-16T02:15:43;3.63;;;2.57;;
10191;SDS011;17580;50.850;4.504;2024-02-16T02:18:10;2.77;;;2.53;;
10191;SDS011;17580;50.850;4.504;2024-02-16T02:20:37;3.00;;;2.17;;
10191;SDS011;17580;50.850;4.504;2024-02-16T02:23:06;2.77;;;2.57;;
10191;SDS011;17580;50.850;4.504;2024-02-16T02:25:33;2.67;;;2.20;;
10191;SDS011;17580;50.850;4.504;2024-02-16T02:28:01;3.60;;;2.80;;
10191;SDS011;17580;50.850;4.504;2024-02-16T02:30:29;6.77;;;3.13;;
10191;SDS011;17580;50.850;4.504;2024-02-16T02:32:56;3.60;;;2.60;;
10191;SDS011;17580;50.850;4.504;2024-02-16T02:35:23;2.60;;;2.40;;
10191;SDS011;17580;50.850;4.504;2024-02-16T02:37:50;3.60;;;2.30;;
10191;SDS011;17580;50.850;4.504;2024-02-16T02:40:19;3.83;;;2.57;;
10191;SDS011;17580;50.850;4.504;2024-02-16T02:42:46;3.07;;;2.50;;
10191;SDS011;17580;50.850;4.504;2024-02-16T02:45:13;4.37;;;2.87;;
10191;SDS011;17580;50.850;4.504;2024-02-16T02:47:41;2.80;;;2.60;;
10191;SDS011;17580;50.850;4.504;2024-02-16T02:50:09;3.60;;;2.60;;
10191;SDS011;17580;50.850;4.504;2024-02-16T02:52:36;3.23;;;2.80;;
10191;SDS011;17580;50.850;4.504;2024-02-16T02:55:04;3.00;;;2.80;;
10191;SDS011;17580;50.850;4.504;2024-02-16T02:57:33;3.20;;;2.37;;
10191;SDS011;17580;50.850;4.504;2024-02-16T03:00:04;2.93;;;2.63;;
10191;SDS011;17580;50.850;4.504;2024-02-16T03:02:35;3.57;;;2.70;;
10191;SDS011;17580;50.850;4.504;2024-02-16T03:05:03;2.50;;;2.33;;
10191;SDS011;17580;50.850;4.504;2024-02-16T03:07:32;5.37;;;3.03;;
10191;SDS011;17580;50.850;4.504;2024-02-16T03:09:59;3.17;;;2.87;;
10191;SDS011;17580;50.850;4.504;2024-02-16T03:12:26;3.27;;;2.50;;
10191;SDS011;17580;50.850;4.504;2024-02-16T03:14:55;2.97;;;2.73;;
10191;SDS011;17580;50.850;4.504;2024-02-16T03:17:23;3.07;;;2.67;;
10191;SDS011;17580;50.850;4.504;2024-02-16T03:19:50;3.27;;;2.53;;
10191;SDS011;17580;50.850;4.504;2024-02-16T03:22:17;6.50;;;3.10;;
10191;SDS011;17580;50.850;4.504;2024-02-16T03:24:45;3.63;;;2.90;;
10191;SDS011;17580;50.850;4.504;2024-02-16T03:27:13;3.07;;;2.87;;
10191;SDS011;17580;50.850;4.504;2024-02-16T03:29:40;3.23;;;2.93;;
10191;SDS011;17580;50.850;4.504;2024-02-16T03:32:08;3.33;;;2.60;;
10191;SDS011;17580;50.850;4.504;2024-02-16T03:34:36;5.40;;;3.00;;
10191;SDS011;17580;50.850;4.504;2024-02-16T03:37:03;3.90;;;2.77;;
10191;SDS011;17580;50.850;4.504;2024-02-16T03:39:30;4.57;;;3.00;;
10191;SDS011;17580;50.850;4.504;2024-02-16T03:41:57;4.80;;;2.80;;
10191;SDS011;17580;50.850;4.504;2024-02-16T03:44:25;2.90;;;2.67;;
10191;SDS011;17580;50.850;4.504;2024-02-16T03:46:52;3.50;;;2.53;;
10191;SDS011;17580;50.850;4.504;2024-02-16T03:49:20;4.80;;;2.40;;
10191;SDS011;17580;50.850;4.504;2024-02-16T03:51:48;4.00;;;2.80;;
10191;SDS011;17580;50.850;4.504;2024-02-16T03:54:15;3.60;;;3.30;;
10191;SDS011;17580;50.850;4.504;2024-02-16T03:56:42;5.40;;;3.00;;
10191;SDS011;17580;50.850;4.504;2024-02-16T03:59:10;4.53;;;2.83;;
10191;SDS011;17580;50.850;4.504;2024-02-16T04:01:37;3.70;;;2.60;;
10191;SDS011;17580;50.850;4.504;2024-02-16T04:04:07;3.23;;;2.80;;
10191;SDS011;17580;50.850;4.504;2024-02-16T04:06:35;2.97;;;2.60;;
10191;SDS011;17580;50.850;4.504;2024-02-16T04:09:02;7.13;;;2.93;;
10191;SDS011;17580;50.850;4.504;2024-02-16T04:11:31;2.73;;;2.43;;
10191;SDS011;17580;50.850;4.504;2024-02-16T04:13:58;6.03;;;3.10;;
10191;SDS011;17580;50.850;4.504;2024-02-16T04:16:25;5.77;;;3.03;;
10191;SDS011;17580;50.850;4.504;2024-02-16T04:18:53;3.53;;;2.70;;
10191;SDS011;17580;50.850;4.504;2024-02-16T04:21:20;2.63;;;2.43;;
10191;SDS011;17580;50.850;4.504;2024-02-16T04:23:48;3.33;;;2.87;;
10191;SDS011;17580;50.850;4.504;2024-02-16T04:26:16;4.30;;;2.70;;
10191;SDS011;17580;50.850;4.504;2024-02-16T04:28:43;3.97;;;2.90;;
10191;SDS011;17580;50.850;4.504;2024-02-16T04:31:10;4.77;;;2.60;;
10191;SDS011;17580;50.850;4.504;2024-02-16T04:33:37;3.50;;;3.20;;
10191;SDS011;17580;50.850;4.504;2024-02-16T04:36:05;3.63;;;3.10;;
10191;SDS011;17580;50.850;4.504;2024-02-16T04:38:33;2.77;;;2.53;;
10191;SDS011;17580;50.850;4.504;2024-02-16T04:41:01;4.97;;;2.90;;
10191;SDS011;17580;50.850;4.504;2024-02-16T04:43:29;4.90;;;2.60;;
10191;SDS011;17580;50.850;4.504;2024-02-16T04:45:56;3.77;;;2.60;;
10191;SDS011;17580;50.850;4.504;2024-02-16T04:48:24;4.57;;;2.60;;
10191;SDS011;17580;50.850;4.504;2024-02-16T04:50:52;3.87;;;2.77;;
10191;SDS011;17580;50.850;4.504;2024-02-16T04:53:19;3.43;;;2.60;;
10191;SDS011;17580;50.850;4.504;2024-02-16T04:55:46;2.77;;;2.50;;
10191;SDS011;17580;50.850;4.504;2024-02-16T04:58:15;5.40;;;2.87;;
10191;SDS011;17580;50.850;4.504;2024-02-16T05:00:42;4.53;;;3.17;;
10191;SDS011;17580;50.850;4.504;2024-02-16T05:03:11;4.90;;;2.73;;
10191;SDS011;17580;50.850;4.504;2024-02-16T05:05:39;2.83;;;2.47;;
10191;SDS011;17580;50.850;4.504;2024-02-16T05:08:06;3.77;;;3.00;;
10191;SDS011;17580;50.850;4.504;2024-02-16T05:10:33;3.17;;;2.67;;
10191;SDS011;17580;50.850;4.504;2024-02-16T05:13:00;4.63;;;2.97;;
10191;SDS011;17580;50.850;4.504;2024-02-16T05:15:29;3.93;;;2.93;;
10191;SDS011;17580;50.850;4.504;2024-02-16T05:17:57;3.07;;;2.77;;
10191;SDS011;17580;50.850;4.504;2024-02-16T05:20:24;3.17;;;2.87;;
10191;SDS011;17580;50.850;4.504;2024-02-16T05:22:51;3.07;;;2.70;;
10191;SDS011;17580;50.850;4.504;2024-02-16T05:25:19;4.63;;;3.40;;
10191;SDS011;17580;50.850;4.504;2024-02-16T05:27:46;4.67;;;2.90;;
10191;SDS011;17580;50.850;4.504;2024-02-16T05:30:13;2.93;;;2.73;;
10191;SDS011;17580;50.850;4.504;2024-02-16T05:32:42;3.23;;;2.83;;
10191;SDS011;17580;50.850;4.504;2024-02-16T05:35:10;4.77;;;3.07;;
10191;SDS011;17580;50.850;4.504;2024-02-16T05:37:40;3.57;;;2.67;;
10191;SDS011;17580;50.850;4.504;2024-02-16T05:40:09;4.90;;;3.23;;
10191;SDS011;17580;50.850;4.504;2024-02-16T05:42:46;2.77;;;2.60;;
10191;SDS011;17580;50.850;4.504;2024-02-16T05:45:14;6.07;;;3.03;;
10191;SDS011;17580;50.850;4.504;2024-02-16T05:47:43;3.63;;;3.30;;
10191;SDS011;17580;50.850;4.504;2024-02-16T05:50:11;3.33;;;3.00;;
10191;SDS011;17580;50.850;4.504;2024-02-16T05:52:38;5.97;;;3.23;;
10191;SDS011;17580;50.850;4.504;2024-02-16T05:55:06;5.23;;;2.53;;
10191;SDS011;17580;50.850;4.504;2024-02-16T05:57:34;4.30;;;3.00;;
10191;SDS011;17580;50.850;4.504;2024-02-16T06:00:01;3.13;;;2.50;;
10191;SDS011;17580;50.850;4.504;2024-02-16T06:02:30;9.80;;;2.80;;
10191;SDS011;17580;50.850;4.504;2024-02-16T06:04:58;7.43;;;3.67;;
10191;SDS011;17580;50.850;4.504;2024-02-16T06:07:25;3.60;;;3.05;;
10191;SDS011;17580;50.850;4.504;2024-02-16T06:09:54;9.07;;;3.40;;
10191;SDS011;17580;50.850;4.504;2024-02-16T06:12:21;3.33;;;2.97;;
10191;SDS011;17580;50.850;4.504;2024-02-16T06:14:49;16.83;;;3.43;;
10191;SDS011;17580;50.850;4.504;2024-02-16T06:17:17;7.67;;;3.53;;
10191;SDS011;17580;50.850;4.504;2024-02-16T06:19:44;3.67;;;3.17;;
10191;SDS011;17580;50.850;4.504;2024-02-16T06:22:13;3.30;;;3.00;;
10191;SDS011;17580;50.850;4.504;2024-02-16T06:24:41;4.33;;;3.50;;
10191;SDS011;17580;50.850;4.504;2024-02-16T06:27:09;4.37;;;3.60;;
10191;SDS011;17580;50.850;4.504;2024-02-16T06:29:36;4.67;;;3.40;;
10191;SDS011;17580;50.850;4.504;2024-02-16T06:32:04;3.63;;;3.33;;
10191;SDS011;17580;50.850;4.504;2024-02-16T06:34:31;5.53;;;3.60;;
10191;SDS011;17580;50.850;4.504;2024-02-16T06:36:58;4.67;;;3.60;;
10191;SDS011;17580;50.850;4.504;2024-02-16T06:39:27;6.53;;;3.83;;
10191;SDS011;17580;50.850;4.504;2024-02-16T06:41:56;4.80;;;3.53;;
10191;SDS011;17580;50.850;4.504;2024-02-16T06:44:23;4.83;;;3.50;;
10191;SDS011;17580;50.850;4.504;2024-02-16T06:46:50;4.33;;;3.43;;
10191;SDS011;17580;50.850;4.504;2024-02-16T06:49:17;4.43;;;3.07;;
10191;SDS011;17580;50.850;4.504;2024-02-16T06:51:45;3.70;;;3.40;;
10191;SDS011;17580;50.850;4.504;2024-02-16T06:54:12;7.27;;;3.60;;
10191;SDS011;17580;50.850;4.504;2024-02-16T06:56:41;5.13;;;3.13;;
10191;SDS011;17580;50.850;4.504;2024-02-16T06:59:09;6.43;;;4.00;;
10191;SDS011;17580;50.850;4.504;2024-02-16T07:01:36;5.80;;;4.07;;
10191;SDS011;17580;50.850;4.504;2024-02-16T07:04:03;6.30;;;3.87;;
10191;SDS011;17580;50.850;4.504;2024-02-16T07:06:31;5.03;;;3.50;;
10191;SDS011;17580;50.850;4.504;2024-02-16T07:08:58;4.60;;;3.53;;
10191;SDS011;17580;50.850;4.504;2024-02-16T07:11:25;5.53;;;3.27;;
10191;SDS011;17580;50.850;4.504;2024-02-16T07:13:54;4.77;;;3.50;;
10191;SDS011;17580;50.850;4.504;2024-02-16T07:16:21;13.93;;;3.47;;
10191;SDS011;17580;50.850;4.504;2024-02-16T07:18:48;5.10;;;3.70;;
10191;SDS011;17580;50.850;4.504;2024-02-16T07:21:15;6.80;;;3.37;;
10191;SDS011;17580;50.850;4.504;2024-02-16T07:23:45;13.00;;;4.17;;
10191;SDS011;17580;50.850;4.504;2024-02-16T07:26:13;6.23;;;3.90;;
10191;SDS011;17580;50.850;4.504;2024-02-16T07:28:42;5.80;;;3.73;;
10191;SDS011;17580;50.850;4.504;2024-02-16T07:31:11;7.17;;;3.27;;
10191;SDS011;17580;50.850;4.504;2024-02-16T07:33:39;4.80;;;3.70;;
10191;SDS011;17580;50.850;4.504;2024-02-16T07:36:07;5.43;;;4.00;;
10191;SDS011;17580;50.850;4.504;2024-02-16T07:38:34;6.40;;;3.60;;
10191;SDS011;17580;50.850;4.504;2024-02-16T07:41:02;4.97;;;3.30;;
10191;SDS011;17580;50.850;4.504;2024-02-16T07:43:31;5.77;;;3.57;;
10191;SDS011;17580;50.850;4.504;2024-02-16T07:45:58;6.17;;;3.90;;
10191;SDS011;17580;50.850;4.504;2024-02-16T07:48:26;7.63;;;3.47;;
10191;SDS011;17580;50.850;4.504;2024-02-16T07:50:54;5.17;;;4.20;;
10191;SDS011;17580;50.850;4.504;2024-02-16T07:53:24;7.60;;;4.10;;
10191;SDS011;17580;50.850;4.504;2024-02-16T07:55:51;4.97;;;3.03;;
10191;SDS011;17580;50.850;4.504;2024-02-16T07:58:18;4.53;;;3.93;;
10191;SDS011;17580;50.850;4.504;2024-02-16T08:00:45;8.03;;;4.10;;
10191;SDS011;17580;50.850;4.504;2024-02-16T08:03:13;5.90;;;3.67;;
10191;SDS011;17580;50.850;4.504;2024-02-16T08:05:41;7.43;;;3.90;;
10191;SDS011;17580;50.850;4.504;2024-02-16T08:08:08;6.27;;;3.70;;
10191;SDS011;17580;50.850;4.504;2024-02-16T08:10:36;10.97;;;3.80;;
10191;SDS011;17580;50.850;4.504;2024-02-16T08:13:03;7.53;;;3.93;;
10191;SDS011;17580;50.850;4.504;2024-02-16T08:15:30;4.83;;;3.57;;
10191;SDS011;17580;50.850;4.504;2024-02-16T08:17:58;4.33;;;3.70;;
10191;SDS011;17580;50.850;4.504;2024-02-16T08:20:25;5.27;;;3.93;;
10191;SDS011;17580;50.850;4.504;2024-02-16T08:22:53;9.43;;;3.70;;
10191;SDS011;17580;50.850;4.504;2024-02-16T08:25:21;9.00;;;4.10;;
10191;SDS011;17580;50.850;4.504;2024-02-16T08:27:48;4.50;;;3.70;;
10191;SDS011;17580;50.850;4.504;2024-02-16T08:30:15;4.17;;;3.43;;
10191;SDS011;17580;50.850;4.504;2024-02-16T08:32:43;9.30;;;4.63;;
10191;SDS011;17580;50.850;4.504;2024-02-16T08:35:10;5.80;;;4.07;;
10191;SDS011;17580;50.850;4.504;2024-02-16T08:37:39;4.73;;;3.53;;
10191;SDS011;17580;50.850;4.504;2024-02-16T08:40:08;6.87;;;4.10;;
10191;SDS011;17580;50.850;4.504;2024-02-16T08:42:39;11.17;;;4.40;;
10191;SDS011;17580;50.850;4.504;2024-02-16T08:45:07;5.23;;;4.23;;
10191;SDS011;17580;50.850;4.504;2024-02-16T08:47:34;5.43;;;4.67;;
10191;SDS011;17580;50.850;4.504;2024-02-16T08:50:01;9.20;;;4.20;;
10191;SDS011;17580;50.850;4.504;2024-02-16T08:52:28;7.43;;;4.40;;
10191;SDS011;17580;50.850;4.504;2024-02-16T08:54:56;8.20;;;5.23;;
10191;SDS011;17580;50.850;4.504;2024-02-16T08:57:24;12.13;;;4.90;;
10191;SDS011;17580;50.850;4.504;2024-02-16T08:59:51;6.90;;;4.80;;
10191;SDS011;17580;50.850;4.504;2024-02-16T09:02:20;8.67;;;5.07;;
10191;SDS011;17580;50.850;4.504;2024-02-16T09:04:47;6.43;;;4.77;;
10191;SDS011;17580;50.850;4.504;2024-02-16T09:07:15;10.77;;;4.73;;
10191;SDS011;17580;50.850;4.504;2024-02-16T09:09:42;4.57;;;4.17;;
10191;SDS011;17580;50.850;4.504;2024-02-16T09:12:09;7.60;;;4.73;;
10191;SDS011;17580;50.850;4.504;2024-02-16T09:14:39;8.83;;;4.63;;
10191;SDS011;17580;50.850;4.504;2024-02-16T09:17:06;7.20;;;4.63;;
10191;SDS011;17580;50.850;4.504;2024-02-16T09:19:33;8.83;;;5.63;;
10191;SDS011;17580;50.850;4.504;2024-02-16T09:22:00;11.27;;;5.30;;
10191;SDS011;17580;50.850;4.504;2024-02-16T09:24:28;9.53;;;4.63;;
10191;SDS011;17580;50.850;4.504;2024-02-16T09:26:55;12.30;;;5.30;;
10191;SDS011;17580;50.850;4.504;2024-02-16T09:29:23;6.87;;;5.60;;
10191;SDS011;17580;50.850;4.504;2024-02-16T09:31:51;8.33;;;5.50;;
10191;SDS011;17580;50.850;4.504;2024-02-16T09:34:19;6.93;;;4.97;;
10191;SDS011;17580;50.850;4.504;2024-02-16T09:36:46;10.37;;;6.00;;
10191;SDS011;17580;50.850;4.504;2024-02-16T09:39:13;8.07;;;5.30;;
10191;SDS011;17580;50.850;4.504;2024-02-16T09:41:41;8.83;;;5.57;;
10191;SDS011;17580;50.850;4.504;2024-02-16T09:44:09;8.03;;;5.10;;
10191;SDS011;17580;50.850;4.504;2024-02-16T09:46:36;8.23;;;5.60;;
10191;SDS011;17580;50.850;4.504;2024-02-16T09:49:05;9.30;;;5.47;;
10191;SDS011;17580;50.850;4.504;2024-02-16T09:51:35;8.60;;;5.70;;
10191;SDS011;17580;50.850;4.504;2024-02-16T09:54:02;9.90;;;5.57;;
10191;SDS011;17580;50.850;4.504;2024-02-16T09:56:29;9.17;;;5.13;;
10191;SDS011;17580;50.850;4.504;2024-02-16T09:58:58;6.70;;;5.47;;
10191;SDS011;17580;50.850;4.504;2024-02-16T10:01:25;9.67;;;5.53;;
10191;SDS011;17580;50.850;4.504;2024-02-16T10:03:53;7.73;;;5.50;;
10191;SDS011;17580;50.850;4.504;2024-02-16T10:06:22;12.73;;;6.17;;
10191;SDS011;17580;50.850;4.504;2024-02-16T10:08:49;10.40;;;6.07;;
10191;SDS011;17580;50.850;4.504;2024-02-16T10:11:16;12.43;;;5.50;;
10191;SDS011;17580;50.850;4.504;2024-02-16T10:13:53;10.00;;;5.60;;
10191;SDS011;17580;50.850;4.504;2024-02-16T10:16:21;12.07;;;6.50;;
10191;SDS011;17580;50.850;4.504;2024-02-16T10:18:49;11.73;;;5.67;;
10191;SDS011;17580;50.850;4.504;2024-02-16T10:21:25;8.17;;;5.60;;
10191;SDS011;17580;50.850;4.504;2024-02-16T10:23:59;11.43;;;5.87;;
10191;SDS011;17580;50.850;4.504;2024-02-16T10:26:28;10.77;;;6.10;;
10191;SDS011;17580;50.850;4.504;2024-02-16T10:28:56;16.53;;;6.03;;
10191;SDS011;17580;50.850;4.504;2024-02-16T10:31:24;10.47;;;6.37;;
10191;SDS011;17580;50.850;4.504;2024-02-16T10:33:56;9.47;;;5.77;;
10191;SDS011;17580;50.850;4.504;2024-02-16T10:36:25;10.67;;;5.73;;
10191;SDS011;17580;50.850;4.504;2024-02-16T10:38:54;11.80;;;6.33;;
10191;SDS011;17580;50.850;4.504;2024-02-16T10:41:25;13.83;;;6.20;;
10191;SDS011;17580;50.850;4.504;2024-02-16T10:43:54;10.70;;;5.83;;
10191;SDS011;17580;50.850;4.504;2024-02-16T10:46:21;13.67;;;6.37;;
10191;SDS011;17580;50.850;4.504;2024-02-16T10:48:49;10.80;;;5.77;;
10191;SDS011;17580;50.850;4.504;2024-02-16T10:51:17;9.47;;;6.10;;
10191;SDS011;17580;50.850;4.504;2024-02-16T10:53:48;12.17;;;7.90;;
10191;SDS011;17580;50.850;4.504;2024-02-16T10:56:26;7.80;;;6.37;;
10191;SDS011;17580;50.850;4.504;2024-02-16T10:58:53;10.47;;;6.50;;
10191;SDS011;17580;50.850;4.504;2024-02-16T11:01:21;11.73;;;6.47;;
10191;SDS011;17580;50.850;4.504;2024-02-16T11:03:48;13.30;;;6.37;;
10191;SDS011;17580;50.850;4.504;2024-02-16T11:06:15;10.57;;;7.03;;
10191;SDS011;17580;50.850;4.504;2024-02-16T11:08:43;14.20;;;7.70;;
10191;SDS011;17580;50.850;4.504;2024-02-16T11:11:11;9.57;;;6.93;;
10191;SDS011;17580;50.850;4.504;2024-02-16T11:13:49;13.40;;;6.53;;
10191;SDS011;17580;50.850;4.504;2024-02-16T11:16:17;15.83;;;7.97;;
10191;SDS011;17580;50.850;4.504;2024-02-16T11:18:45;8.53;;;6.37;;
10191;SDS011;17580;50.850;4.504;2024-02-16T11:21:14;9.60;;;7.33;;
10191;SDS011;17580;50.850;4.504;2024-02-16T11:23:41;11.00;;;7.43;;
10191;SDS011;17580;50.850;4.504;2024-02-16T11:26:09;11.23;;;8.03;;
10191;SDS011;17580;50.850;4.504;2024-02-16T11:28:40;15.53;;;7.20;;
10191;SDS011;17580;50.850;4.504;2024-02-16T11:31:07;11.97;;;7.00;;
10191;SDS011;17580;50.850;4.504;2024-02-16T11:33:34;12.77;;;7.77;;
10191;SDS011;17580;50.850;4.504;2024-02-16T11:36:02;10.00;;;6.80;;
10191;SDS011;17580;50.850;4.504;2024-02-16T11:38:30;11.83;;;7.67;;
10191;SDS011;17580;50.850;4.504;2024-02-16T11:40:58;12.50;;;7.43;;
10191;SDS011;17580;50.850;4.504;2024-02-16T11:43:26;13.70;;;7.73;;
10191;SDS011;17580;50.850;4.504;2024-02-16T11:45:54;11.43;;;7.00;;
10191;SDS011;17580;50.850;4.504;2024-02-16T11:48:22;12.03;;;7.70;;
10191;SDS011;17580;50.850;4.504;2024-02-16T11:50:49;12.63;;;8.27;;
10191;SDS011;17580;50.850;4.504;2024-02-16T11:53:17;11.90;;;8.07;;
10191;SDS011;17580;50.850;4.504;2024-02-16T11:55:46;10.37;;;7.07;;
10191;SDS011;17580;50.850;4.504;2024-02-16T11:58:14;12.93;;;9.37;;
10191;SDS011;17580;50.850;4.504;2024-02-16T12:00:42;10.23;;;8.47;;
10191;SDS011;17580;50.850;4.504;2024-02-16T12:03:10;9.13;;;6.87;;
10191;SDS011;17580;50.850;4.504;2024-02-16T12:05:38;9.00;;;7.57;;
10191;SDS011;17580;50.850;4.504;2024-02-16T12:08:05;9.33;;;5.90;;
10191;SDS011;17580;50.850;4.504;2024-02-16T12:10:33;6.33;;;5.70;;
10191;SDS011;17580;50.850;4.504;2024-02-16T12:13:01;7.83;;;6.13;;
10191;SDS011;17580;50.850;4.504;2024-02-16T12:15:29;6.83;;;6.23;;
10191;SDS011;17580;50.850;4.504;2024-02-16T12:17:58;5.70;;;5.20;;
10191;SDS011;17580;50.850;4.504;2024-02-16T12:20:27;6.77;;;5.10;;
10191;SDS011;17580;50.850;4.504;2024-02-16T12:22:54;8.47;;;5.73;;
10191;SDS011;17580;50.850;4.504;2024-02-16T12:25:21;7.27;;;5.93;;
10191;SDS011;17580;50.850;4.504;2024-02-16T12:27:49;6.17;;;5.53;;
10191;SDS011;17580;50.850;4.504;2024-02-16T12:30:17;5.43;;;4.90;;
10191;SDS011;17580;50.850;4.504;2024-02-16T12:32:44;5.23;;;4.80;;
10191;SDS011;17580;50.850;4.504;2024-02-16T12:35:11;5.73;;;5.17;;
10191;SDS011;17580;50.850;4.504;2024-02-16T12:37:40;7.90;;;4.90;;
10191;SDS011;17580;50.850;4.504;2024-02-16T12:40:08;5.37;;;4.80;;
10191;SDS011;17580;50.850;4.504;2024-02-16T12:42:35;6.83;;;4.80;;
10191;SDS011;17580;50.850;4.504;2024-02-16T12:45:03;4.30;;;3.93;;
10191;SDS011;17580;50.850;4.504;2024-02-16T12:47:30;5.97;;;5.37;;
10191;SDS011;17580;50.850;4.504;2024-02-16T12:49:57;4.27;;;3.87;;
10191;SDS011;17580;50.850;4.504;2024-02-16T12:52:25;4.60;;;4.13;;
10191;SDS011;17580;50.850;4.504;2024-02-16T12:54:54;4.47;;;4.10;;
10191;SDS011;17580;50.850;4.504;2024-02-16T12:57:24;4.77;;;4.23;;
10191;SDS011;17580;50.850;4.504;2024-02-16T12:59:51;4.43;;;4.13;;
10191;SDS011;17580;50.850;4.504;2024-02-16T13:02:18;4.50;;;4.20;;
10191;SDS011;17580;50.850;4.504;2024-02-16T13:04:45;4.50;;;4.20;;
10191;SDS011;17580;50.850;4.504;2024-02-16T13:07:13;4.77;;;4.33;;
10191;SDS011;17580;50.850;4.504;2024-02-16T13:09:40;4.47;;;4.17;;
10191;SDS011;17580;50.850;4.504;2024-02-16T13:12:08;5.07;;;4.67;;
10191;SDS011;17580;50.850;4.504;2024-02-16T13:14:36;5.10;;;4.80;;
10191;SDS011;17580;50.850;4.504;2024-02-16T13:17:03;5.37;;;4.97;;
10191;SDS011;17580;50.850;4.504;2024-02-16T13:19:30;5.00;;;4.70;;
10191;SDS011;17580;50.850;4.504;2024-02-16T13:21:58;4.40;;;4.10;;
10191;SDS011;17580;50.850;4.504;2024-02-16T13:24:25;5.63;;;5.10;;
10191;SDS011;17580;50.850;4.504;2024-02-16T13:26:52;5.80;;;5.40;;
10191;SDS011;17580;50.850;4.504;2024-02-16T13:29:21;5.47;;;5.07;;
10191;SDS011;17580;50.850;4.504;2024-02-16T13:31:48;5.97;;;5.30;;
10191;SDS011;17580;50.850;4.504;2024-02-16T13:34:15;6.00;;;5.57;;
10191;SDS011;17580;50.850;4.504;2024-02-16T13:36:43;5.30;;;4.90;;
10191;SDS011;17580;50.850;4.504;2024-02-16T13:39:10;5.23;;;4.87;;
10191;SDS011;17580;50.850;4.504;2024-02-16T13:41:39;5.77;;;5.37;;
10191;SDS011;17580;50.850;4.504;2024-02-16T13:44:08;6.60;;;5.70;;
10191;SDS011;17580;50.850;4.504;2024-02-16T13:46:37;5.80;;;5.40;;
10191;SDS011;17580;50.850;4.504;2024-02-16T13:49:04;5.73;;;5.33;;
10191;SDS011;17580;50.850;4.504;2024-02-16T13:51:31;8.20;;;7.50;;
10191;SDS011;17580;50.850;4.504;2024-02-16T13:53:59;9.00;;;8.30;;
10191;SDS011;17580;50.850;4.504;2024-02-16T13:56:26;7.70;;;7.00;;
10191;SDS011;17580;50.850;4.504;2024-02-16T13:58:53;8.77;;;7.97;;
10191;SDS011;17580;50.850;4.504;2024-02-16T14:01:20;8.80;;;8.10;;
10191;SDS011;17580;50.850;4.504;2024-02-16T14:03:50;9.23;;;8.53;;
10191;SDS011;17580;50.850;4.504;2024-02-16T14:06:17;9.40;;;8.70;;
10191;SDS011;17580;50.850;4.504;2024-02-16T14:08:45;9.47;;;8.63;;
10191;SDS011;17580;50.850;4.504;2024-02-16T14:11:13;11.37;;;10.40;;
10191;SDS011;17580;50.850;4.504;2024-02-16T14:13:40;12.17;;;11.07;;
10191;SDS011;17580;50.850;4.504;2024-02-16T14:16:07;13.57;;;12.30;;
10191;SDS011;17580;50.850;4.504;2024-02-16T14:18:35;12.13;;;11.13;;
10191;SDS011;17580;50.850;4.504;2024-02-16T14:21:04;11.70;;;10.60;;
10191;SDS011;17580;50.850;4.504;2024-02-16T14:23:31;10.07;;;9.27;;
10191;SDS011;17580;50.850;4.504;2024-02-16T14:25:59;10.27;;;9.43;;
10191;SDS011;17580;50.850;4.504;2024-02-16T14:28:26;8.70;;;8.00;;
10191;SDS011;17580;50.850;4.504;2024-02-16T14:30:53;6.97;;;6.57;;
10191;SDS011;17580;50.850;4.504;2024-02-16T14:33:20;7.20;;;6.70;;
10191;SDS011;17580;50.850;4.504;2024-02-16T14:35:48;6.20;;;5.80;;
10191;SDS011;17580;50.850;4.504;2024-02-16T14:38:16;6.53;;;6.03;;
10191;SDS011;17580;50.850;4.504;2024-02-16T14:40:44;6.00;;;5.60;;
10191;SDS011;17580;50.850;4.504;2024-02-16T14:43:11;5.33;;;4.93;;
10191;SDS011;17580;50.850;4.504;2024-02-16T14:45:38;4.70;;;4.40;;
10191;SDS011;17580;50.850;4.504;2024-02-16T14:48:05;4.47;;;4.27;;